sensor_id;sensor_type;location;lat;lon;timestamp;pressure;altitude;pressure_sealevel;temperature;humidity
77153;BME280;66124;51.146;17.072;2023-02-01T00:01:24;99640.73;;;1.75;86.83
77153;BME280;66124;51.146;17.072;2023-02-01T00:03:53;99640.20;;;1.77;86.63
77153;BME280;66124;51.146;17.072;2023-02-01T00:06:24;99647.79;;;1.79;86.43
77153;BME280;66124;51.146;17.072;2023-02-01T00:08:55;99638.56;;;1.81;86.49
77153;BME280;66124;51.146;17.072;2023-02-01T00:11:25;99631.48;;;1.83;86.04
77153;BME280;66124;51.146;17.072;2023-02-01T00:13:54;99623.90;;;1.84;86.13
77153;BME280;66124;51.146;17.072;2023-02-01T00:16:26;99620.95;;;1.85;86.18
77153;BME280;66124;51.146;17.072;2023-02-01T00:19:00;99627.89;;;1.84;86.08
77153;BME280;66124;51.146;17.072;2023-02-01T00:21:30;99635.86;;;1.84;86.11
77153;BME280;66124;51.146;17.072;2023-02-01T00:24:00;99629.36;;;1.85;85.85
77153;BME280;66124;51.146;17.072;2023-02-01T00:26:33;99630.16;;;1.88;85.83
77153;BME280;66124;51.146;17.072;2023-02-01T00:29:04;99630.67;;;1.90;86.13
77153;BME280;66124;51.146;17.072;2023-02-01T00:31:34;99629.52;;;1.91;85.76
77153;BME280;66124;51.146;17.072;2023-02-01T00:34:04;99633.48;;;1.93;85.95
77153;BME280;66124;51.146;17.072;2023-02-01T00:36:33;99635.48;;;1.94;86.10
77153;BME280;66124;51.146;17.072;2023-02-01T00:39:03;99633.92;;;1.96;85.95
77153;BME280;66124;51.146;17.072;2023-02-01T00:41:32;99640.65;;;1.98;85.93
77153;BME280;66124;51.146;17.072;2023-02-01T00:44:01;99639.94;;;2.02;86.04
77153;BME280;66124;51.146;17.072;2023-02-01T00:46:31;99634.77;;;2.07;86.27
77153;BME280;66124;51.146;17.072;2023-02-01T00:49:01;99632.12;;;2.14;86.33
77153;BME280;66124;51.146;17.072;2023-02-01T00:51:31;99631.74;;;2.20;86.22
77153;BME280;66124;51.146;17.072;2023-02-01T00:54:00;99633.46;;;2.26;86.04
77153;BME280;66124;51.146;17.072;2023-02-01T00:56:29;99634.18;;;2.31;86.21
77153;BME280;66124;51.146;17.072;2023-02-01T00:58:59;99638.24;;;2.35;86.05
77153;BME280;66124;51.146;17.072;2023-02-01T01:01:28;99640.11;;;2.39;86.20
77153;BME280;66124;51.146;17.072;2023-02-01T01:03:57;99641.13;;;2.44;86.13
77153;BME280;66124;51.146;17.072;2023-02-01T01:06:26;99645.69;;;2.47;85.98
77153;BME280;66124;51.146;17.072;2023-02-01T01:14:03;99651.30;;;2.55;85.78
77153;BME280;66124;51.146;17.072;2023-02-01T01:16:33;99653.20;;;2.55;85.60
77153;BME280;66124;51.146;17.072;2023-02-01T01:19:03;99657.86;;;2.57;85.89
77153;BME280;66124;51.146;17.072;2023-02-01T01:21:33;99653.06;;;2.60;85.37
77153;BME280;66124;51.146;17.072;2023-02-01T01:24:02;99654.15;;;2.63;85.42
77153;BME280;66124;51.146;17.072;2023-02-01T01:26:32;99659.27;;;2.68;85.45
77153;BME280;66124;51.146;17.072;2023-02-01T01:29:01;99661.07;;;2.71;85.03
77153;BME280;66124;51.146;17.072;2023-02-01T01:31:31;99662.13;;;2.73;85.09
77153;BME280;66124;51.146;17.072;2023-02-01T01:34:00;99652.67;;;2.74;84.95
77153;BME280;66124;51.146;17.072;2023-02-01T01:36:30;99659.42;;;2.74;84.79
77153;BME280;66124;51.146;17.072;2023-02-01T01:39:00;99647.55;;;2.76;84.68
77153;BME280;66124;51.146;17.072;2023-02-01T01:41:31;99635.27;;;2.76;84.53
77153;BME280;66124;51.146;17.072;2023-02-01T01:44:02;99633.00;;;2.74;84.51
77153;BME280;66124;51.146;17.072;2023-02-01T01:46:34;99639.92;;;2.71;83.82
77153;BME280;66124;51.146;17.072;2023-02-01T01:49:07;99654.23;;;2.73;83.42
77153;BME280;66124;51.146;17.072;2023-02-01T01:51:40;99660.45;;;2.74;83.30
77153;BME280;66124;51.146;17.072;2023-02-01T01:54:16;99666.81;;;2.73;82.87
77153;BME280;66124;51.146;17.072;2023-02-01T01:56:52;99669.30;;;2.70;83.24
77153;BME280;66124;51.146;17.072;2023-02-01T01:59:23;99670.17;;;2.67;83.16
77153;BME280;66124;51.146;17.072;2023-02-01T02:01:53;99669.89;;;2.62;83.48
77153;BME280;66124;51.146;17.072;2023-02-01T02:04:25;99665.52;;;2.57;83.71
77153;BME280;66124;51.146;17.072;2023-02-01T02:06:59;99670.67;;;2.54;84.05
77153;BME280;66124;51.146;17.072;2023-02-01T02:09:30;99664.00;;;2.51;84.57
77153;BME280;66124;51.146;17.072;2023-02-01T02:11:59;99667.61;;;2.50;84.42
77153;BME280;66124;51.146;17.072;2023-02-01T02:14:29;99663.34;;;2.49;84.56
77153;BME280;66124;51.146;17.072;2023-02-01T02:17:13;99655.41;;;2.50;84.67
77153;BME280;66124;51.146;17.072;2023-02-01T02:23:14;99654.47;;;2.56;84.60
77153;BME280;66124;51.146;17.072;2023-02-01T02:37:26;99653.14;;;2.83;84.52
77153;BME280;66124;51.146;17.072;2023-02-01T02:40:06;99649.14;;;2.87;84.47
77153;BME280;66124;51.146;17.072;2023-02-01T02:42:42;99653.50;;;2.92;84.30
77153;BME280;66124;51.146;17.072;2023-02-01T02:45:20;99655.35;;;2.97;84.25
77153;BME280;66124;51.146;17.072;2023-02-01T02:47:54;99657.56;;;3.01;83.96
77153;BME280;66124;51.146;17.072;2023-02-01T02:50:28;99649.93;;;3.04;84.05
77153;BME280;66124;51.146;17.072;2023-02-01T02:53:04;99649.44;;;3.08;83.74
77153;BME280;66124;51.146;17.072;2023-02-01T02:55:38;99650.75;;;3.10;83.39
77153;BME280;66124;51.146;17.072;2023-02-01T02:58:08;99652.91;;;3.13;83.35
77153;BME280;66124;51.146;17.072;2023-02-01T03:00:40;99654.39;;;3.16;83.03
77153;BME280;66124;51.146;17.072;2023-02-01T03:03:11;99657.19;;;3.19;82.73
77153;BME280;66124;51.146;17.072;2023-02-01T03:05:44;99654.20;;;3.23;82.93
77153;BME280;66124;51.146;17.072;2023-02-01T03:08:15;99660.14;;;3.26;82.66
77153;BME280;66124;51.146;17.072;2023-02-01T03:10:53;99659.93;;;3.28;82.31
77153;BME280;66124;51.146;17.072;2023-02-01T03:13:33;99655.52;;;3.29;82.48
77153;BME280;66124;51.146;17.072;2023-02-01T03:16:09;99657.04;;;3.31;81.94
77153;BME280;66124;51.146;17.072;2023-02-01T03:18:45;99663.15;;;3.33;81.99
77153;BME280;66124;51.146;17.072;2023-02-01T03:21:20;99660.80;;;3.34;81.80
77153;BME280;66124;51.146;17.072;2023-02-01T03:23:52;99661.46;;;3.34;81.60
77153;BME280;66124;51.146;17.072;2023-02-01T03:26:23;99663.88;;;3.34;81.46
77153;BME280;66124;51.146;17.072;2023-02-01T03:28:59;99658.69;;;3.34;81.28
77153;BME280;66124;51.146;17.072;2023-02-01T03:31:30;99662.55;;;3.33;81.06
77153;BME280;66124;51.146;17.072;2023-02-01T03:33:59;99666.95;;;3.33;81.00
77153;BME280;66124;51.146;17.072;2023-02-01T03:36:33;99665.18;;;3.33;80.68
77153;BME280;66124;51.146;17.072;2023-02-01T03:39:09;99667.79;;;3.33;80.87
77153;BME280;66124;51.146;17.072;2023-02-01T03:41:45;99669.11;;;3.34;80.83
77153;BME280;66124;51.146;17.072;2023-02-01T03:44:19;99665.86;;;3.35;80.52
77153;BME280;66124;51.146;17.072;2023-02-01T03:46:54;99659.14;;;3.34;80.52
77153;BME280;66124;51.146;17.072;2023-02-01T03:49:25;99655.65;;;3.33;80.38
77153;BME280;66124;51.146;17.072;2023-02-01T03:57:16;99645.76;;;3.28;80.60
77153;BME280;66124;51.146;17.072;2023-02-01T03:59:49;99645.18;;;3.23;80.40
77153;BME280;66124;51.146;17.072;2023-02-01T04:02:19;99640.05;;;3.20;80.16
77153;BME280;66124;51.146;17.072;2023-02-01T04:04:48;99639.98;;;3.19;80.24
77153;BME280;66124;51.146;17.072;2023-02-01T04:07:17;99635.59;;;3.18;80.59
77153;BME280;66124;51.146;17.072;2023-02-01T04:09:47;99631.95;;;3.16;80.41
77153;BME280;66124;51.146;17.072;2023-02-01T04:12:16;99628.84;;;3.14;80.47
77153;BME280;66124;51.146;17.072;2023-02-01T04:14:45;99630.16;;;3.13;80.46
77153;BME280;66124;51.146;17.072;2023-02-01T04:17:15;99628.73;;;3.12;79.90
77153;BME280;66124;51.146;17.072;2023-02-01T04:19:44;99627.93;;;3.11;80.04
77153;BME280;66124;51.146;17.072;2023-02-01T04:22:13;99624.92;;;3.10;80.10
77153;BME280;66124;51.146;17.072;2023-02-01T04:24:43;99622.00;;;3.10;79.92
77153;BME280;66124;51.146;17.072;2023-02-01T04:27:12;99622.52;;;3.10;79.91
77153;BME280;66124;51.146;17.072;2023-02-01T04:29:41;99620.58;;;3.09;79.75
77153;BME280;66124;51.146;17.072;2023-02-01T04:32:11;99623.29;;;3.10;79.95
77153;BME280;66124;51.146;17.072;2023-02-01T04:34:40;99620.81;;;3.11;79.58
77153;BME280;66124;51.146;17.072;2023-02-01T04:37:10;99619.20;;;3.11;79.76
77153;BME280;66124;51.146;17.072;2023-02-01T04:39:39;99618.76;;;3.12;79.61
77153;BME280;66124;51.146;17.072;2023-02-01T04:42:08;99614.67;;;3.08;79.58
77153;BME280;66124;51.146;17.072;2023-02-01T04:44:38;99625.06;;;3.14;79.53
77153;BME280;66124;51.146;17.072;2023-02-01T04:47:07;99620.67;;;3.14;79.69
77153;BME280;66124;51.146;17.072;2023-02-01T04:49:37;99624.98;;;3.16;79.33
77153;BME280;66124;51.146;17.072;2023-02-01T04:52:06;99623.81;;;3.19;79.12
77153;BME280;66124;51.146;17.072;2023-02-01T04:54:35;99617.60;;;3.22;79.16
77153;BME280;66124;51.146;17.072;2023-02-01T04:57:05;99624.33;;;3.26;79.01
77153;BME280;66124;51.146;17.072;2023-02-01T04:59:34;99619.88;;;3.31;79.08
77153;BME280;66124;51.146;17.072;2023-02-01T05:02:04;99613.20;;;3.35;78.77
77153;BME280;66124;51.146;17.072;2023-02-01T05:04:33;99612.27;;;3.40;78.84
77153;BME280;66124;51.146;17.072;2023-02-01T05:07:01;99606.19;;;3.43;78.52
77153;BME280;66124;51.146;17.072;2023-02-01T05:09:28;99614.93;;;3.46;78.41
77153;BME280;66124;51.146;17.072;2023-02-01T05:17:21;99619.70;;;3.60;77.81
77153;BME280;66124;51.146;17.072;2023-02-01T05:19:51;99615.66;;;3.62;77.40
77153;BME280;66124;51.146;17.072;2023-02-01T05:22:20;99610.22;;;3.66;77.67
77153;BME280;66124;51.146;17.072;2023-02-01T05:24:49;99604.85;;;3.71;77.01
77153;BME280;66124;51.146;17.072;2023-02-01T05:27:19;99609.48;;;3.74;77.20
77153;BME280;66124;51.146;17.072;2023-02-01T05:29:48;99609.58;;;3.76;77.30
77153;BME280;66124;51.146;17.072;2023-02-01T05:32:17;99599.98;;;3.78;77.17
77153;BME280;66124;51.146;17.072;2023-02-01T05:34:47;99601.63;;;3.79;76.67
77153;BME280;66124;51.146;17.072;2023-02-01T05:37:16;99603.52;;;3.80;76.75
77153;BME280;66124;51.146;17.072;2023-02-01T05:39:45;99600.79;;;3.80;76.28
77153;BME280;66124;51.146;17.072;2023-02-01T05:42:15;99595.92;;;3.82;76.41
77153;BME280;66124;51.146;17.072;2023-02-01T05:44:44;99597.96;;;3.82;75.90
77153;BME280;66124;51.146;17.072;2023-02-01T05:47:14;99597.77;;;3.82;75.75
77153;BME280;66124;51.146;17.072;2023-02-01T05:49:43;99594.14;;;3.82;76.01
77153;BME280;66124;51.146;17.072;2023-02-01T05:52:13;99590.88;;;3.80;76.08
77153;BME280;66124;51.146;17.072;2023-02-01T05:54:42;99587.90;;;3.78;75.89
77153;BME280;66124;51.146;17.072;2023-02-01T05:57:11;99597.87;;;3.78;75.73
77153;BME280;66124;51.146;17.072;2023-02-01T05:59:41;99592.02;;;3.77;75.59
77153;BME280;66124;51.146;17.072;2023-02-01T06:02:10;99589.06;;;3.77;76.19
77153;BME280;66124;51.146;17.072;2023-02-01T06:04:39;99588.89;;;3.79;75.82
77153;BME280;66124;51.146;17.072;2023-02-01T06:07:10;99583.61;;;3.80;75.65
77153;BME280;66124;51.146;17.072;2023-02-01T06:09:39;99585.12;;;3.82;75.89
77153;BME280;66124;51.146;17.072;2023-02-01T06:12:09;99575.65;;;3.83;75.71
77153;BME280;66124;51.146;17.072;2023-02-01T06:14:38;99580.94;;;3.84;76.02
77153;BME280;66124;51.146;17.072;2023-02-01T06:17:07;99577.52;;;3.85;75.60
77153;BME280;66124;51.146;17.072;2023-02-01T06:19:37;99575.61;;;3.87;75.77
77153;BME280;66124;51.146;17.072;2023-02-01T06:22:06;99567.84;;;3.90;75.60
77153;BME280;66124;51.146;17.072;2023-02-01T06:24:35;99572.80;;;3.92;75.98
77153;BME280;66124;51.146;17.072;2023-02-01T06:27:05;99570.86;;;3.94;75.63
77153;BME280;66124;51.146;17.072;2023-02-01T06:29:33;99571.73;;;3.96;75.10
77153;BME280;66124;51.146;17.072;2023-02-01T06:37:04;99578.00;;;4.04;75.36
77153;BME280;66124;51.146;17.072;2023-02-01T06:39:34;99576.81;;;4.04;75.30
77153;BME280;66124;51.146;17.072;2023-02-01T06:42:03;99570.92;;;4.05;75.18
77153;BME280;66124;51.146;17.072;2023-02-01T06:44:33;99582.74;;;4.07;75.00
77153;BME280;66124;51.146;17.072;2023-02-01T06:47:02;99584.98;;;4.09;74.99
77153;BME280;66124;51.146;17.072;2023-02-01T06:49:33;99591.06;;;4.11;74.88
77153;BME280;66124;51.146;17.072;2023-02-01T06:52:02;99588.98;;;4.13;74.88
77153;BME280;66124;51.146;17.072;2023-02-01T06:54:32;99592.88;;;4.15;75.01
77153;BME280;66124;51.146;17.072;2023-02-01T06:57:01;99601.02;;;4.17;74.75
77153;BME280;66124;51.146;17.072;2023-02-01T06:59:30;99595.12;;;4.19;74.36
77153;BME280;66124;51.146;17.072;2023-02-01T07:02:00;99593.13;;;4.20;74.52
77153;BME280;66124;51.146;17.072;2023-02-01T07:04:29;99597.58;;;4.22;74.83
77153;BME280;66124;51.146;17.072;2023-02-01T07:06:59;99593.04;;;4.20;74.65
77153;BME280;66124;51.146;17.072;2023-02-01T07:09:28;99595.91;;;4.23;74.72
77153;BME280;66124;51.146;17.072;2023-02-01T07:11:58;99593.80;;;4.23;74.69
77153;BME280;66124;51.146;17.072;2023-02-01T07:14:27;99601.47;;;4.23;74.61
77153;BME280;66124;51.146;17.072;2023-02-01T07:16:56;99601.67;;;4.24;74.62
77153;BME280;66124;51.146;17.072;2023-02-01T07:19:26;99602.00;;;4.25;74.66
77153;BME280;66124;51.146;17.072;2023-02-01T07:21:55;99610.58;;;4.26;74.37
77153;BME280;66124;51.146;17.072;2023-02-01T07:24:24;99608.63;;;4.26;74.38
77153;BME280;66124;51.146;17.072;2023-02-01T07:26:54;99610.11;;;4.27;74.70
77153;BME280;66124;51.146;17.072;2023-02-01T07:29:23;99605.73;;;4.28;74.41
77153;BME280;66124;51.146;17.072;2023-02-01T07:31:53;99607.17;;;4.29;74.09
77153;BME280;66124;51.146;17.072;2023-02-01T07:34:22;99605.17;;;4.30;74.31
77153;BME280;66124;51.146;17.072;2023-02-01T07:36:51;99604.59;;;4.30;74.37
77153;BME280;66124;51.146;17.072;2023-02-01T07:39:21;99603.69;;;4.31;74.61
77153;BME280;66124;51.146;17.072;2023-02-01T07:41:50;99600.92;;;4.30;74.54
77153;BME280;66124;51.146;17.072;2023-02-01T07:44:19;99600.38;;;4.31;74.59
77153;BME280;66124;51.146;17.072;2023-02-01T07:46:49;99603.05;;;4.32;74.95
77153;BME280;66124;51.146;17.072;2023-02-01T07:49:18;99600.24;;;4.30;74.65
77153;BME280;66124;51.146;17.072;2023-02-01T07:57:11;99596.05;;;4.42;74.71
77153;BME280;66124;51.146;17.072;2023-02-01T07:59:41;99594.95;;;4.41;74.84
77153;BME280;66124;51.146;17.072;2023-02-01T08:02:10;99587.85;;;4.44;74.79
77153;BME280;66124;51.146;17.072;2023-02-01T08:04:40;99588.61;;;4.45;74.77
77153;BME280;66124;51.146;17.072;2023-02-01T08:07:09;99586.27;;;4.46;74.93
77153;BME280;66124;51.146;17.072;2023-02-01T08:09:40;99587.08;;;4.47;74.78
77153;BME280;66124;51.146;17.072;2023-02-01T08:12:09;99587.21;;;4.49;74.99
77153;BME280;66124;51.146;17.072;2023-02-01T08:14:39;99580.80;;;4.50;75.14
77153;BME280;66124;51.146;17.072;2023-02-01T08:17:08;99585.46;;;4.50;75.04
77153;BME280;66124;51.146;17.072;2023-02-01T08:19:37;99581.98;;;4.51;74.83
77153;BME280;66124;51.146;17.072;2023-02-01T08:22:07;99585.05;;;4.51;75.00
77153;BME280;66124;51.146;17.072;2023-02-01T08:24:37;99594.70;;;4.52;74.91
77153;BME280;66124;51.146;17.072;2023-02-01T08:27:06;99573.16;;;4.53;74.47
77153;BME280;66124;51.146;17.072;2023-02-01T08:29:35;99570.41;;;4.55;75.05
77153;BME280;66124;51.146;17.072;2023-02-01T08:32:05;99569.05;;;4.57;74.94
77153;BME280;66124;51.146;17.072;2023-02-01T08:34:35;99564.47;;;4.61;74.95
77153;BME280;66124;51.146;17.072;2023-02-01T08:37:04;99568.42;;;4.63;74.94
77153;BME280;66124;51.146;17.072;2023-02-01T08:39:34;99561.94;;;4.64;75.03
77153;BME280;66124;51.146;17.072;2023-02-01T08:42:03;99564.92;;;4.65;74.85
77153;BME280;66124;51.146;17.072;2023-02-01T08:44:33;99562.95;;;4.66;75.00
77153;BME280;66124;51.146;17.072;2023-02-01T08:47:02;99551.84;;;4.66;74.92
77153;BME280;66124;51.146;17.072;2023-02-01T08:49:32;99562.70;;;4.65;75.14
77153;BME280;66124;51.146;17.072;2023-02-01T08:52:02;99560.03;;;4.66;74.97
77153;BME280;66124;51.146;17.072;2023-02-01T08:54:31;99566.95;;;4.66;75.02
77153;BME280;66124;51.146;17.072;2023-02-01T08:57:01;99566.80;;;4.66;75.05
77153;BME280;66124;51.146;17.072;2023-02-01T08:59:30;99573.78;;;4.65;75.05
77153;BME280;66124;51.146;17.072;2023-02-01T09:01:59;99576.17;;;4.66;75.27
77153;BME280;66124;51.146;17.072;2023-02-01T09:04:29;99560.88;;;4.64;75.78
77153;BME280;66124;51.146;17.072;2023-02-01T09:06:57;99567.83;;;4.63;75.88
77153;BME280;66124;51.146;17.072;2023-02-01T09:09:27;99567.42;;;4.60;75.91
77153;BME280;66124;51.146;17.072;2023-02-01T09:17:31;99561.92;;;4.46;76.89
77153;BME280;66124;51.146;17.072;2023-02-01T09:20:01;99565.84;;;4.40;76.92
77153;BME280;66124;51.146;17.072;2023-02-01T09:22:30;99563.64;;;4.38;77.14
77153;BME280;66124;51.146;17.072;2023-02-01T09:25:00;99561.52;;;4.38;77.26
77153;BME280;66124;51.146;17.072;2023-02-01T09:27:29;99553.21;;;4.39;77.16
77153;BME280;66124;51.146;17.072;2023-02-01T09:30:00;99548.26;;;4.42;77.03
77153;BME280;66124;51.146;17.072;2023-02-01T09:32:29;99549.66;;;4.46;76.85
77153;BME280;66124;51.146;17.072;2023-02-01T09:34:59;99552.52;;;4.53;76.87
77153;BME280;66124;51.146;17.072;2023-02-01T09:37:28;99539.06;;;4.60;76.68
77153;BME280;66124;51.146;17.072;2023-02-01T09:39:57;99541.34;;;4.66;76.61
77153;BME280;66124;51.146;17.072;2023-02-01T09:45:38;99544.64;;;4.78;76.14
77153;BME280;66124;51.146;17.072;2023-02-01T09:48:15;99540.96;;;4.83;76.20
77153;BME280;66124;51.146;17.072;2023-02-01T09:50:49;99536.23;;;4.88;76.43
77153;BME280;66124;51.146;17.072;2023-02-01T09:53:23;99539.42;;;4.92;75.75
77153;BME280;66124;51.146;17.072;2023-02-01T09:55:59;99530.48;;;4.93;75.85
77153;BME280;66124;51.146;17.072;2023-02-01T09:58:35;99521.37;;;4.92;75.57
77153;BME280;66124;51.146;17.072;2023-02-01T10:01:14;99519.00;;;4.90;75.46
77153;BME280;66124;51.146;17.072;2023-02-01T10:03:45;99511.79;;;4.84;75.53
77153;BME280;66124;51.146;17.072;2023-02-01T10:06:32;99523.94;;;4.92;75.69
77153;BME280;66124;51.146;17.072;2023-02-01T10:09:12;99524.73;;;4.97;75.31
77153;BME280;66124;51.146;17.072;2023-02-01T10:11:51;99516.96;;;4.96;75.29
77153;BME280;66124;51.146;17.072;2023-02-01T10:14:43;99521.30;;;4.94;75.03
77153;BME280;66124;51.146;17.072;2023-02-01T10:17:24;99517.38;;;4.93;75.37
77153;BME280;66124;51.146;17.072;2023-02-01T10:20:03;99517.58;;;4.93;75.36
77153;BME280;66124;51.146;17.072;2023-02-01T10:22:41;99514.50;;;4.92;75.53
77153;BME280;66124;51.146;17.072;2023-02-01T10:25:21;99506.19;;;4.92;75.41
77153;BME280;66124;51.146;17.072;2023-02-01T10:27:51;99511.64;;;4.93;75.24
77153;BME280;66124;51.146;17.072;2023-02-01T10:30:20;99502.55;;;4.95;75.68
77153;BME280;66124;51.146;17.072;2023-02-01T10:37:29;99504.15;;;5.00;75.74
77153;BME280;66124;51.146;17.072;2023-02-01T10:40:02;99489.08;;;5.01;75.22
77153;BME280;66124;51.146;17.072;2023-02-01T10:42:41;99491.11;;;5.04;75.39
77153;BME280;66124;51.146;17.072;2023-02-01T10:45:16;99491.34;;;5.06;75.24
77153;BME280;66124;51.146;17.072;2023-02-01T10:47:47;99493.13;;;5.07;75.34
77153;BME280;66124;51.146;17.072;2023-02-01T10:50:29;99484.71;;;5.05;75.43
77153;BME280;66124;51.146;17.072;2023-02-01T10:53:05;99483.10;;;5.03;75.25
77153;BME280;66124;51.146;17.072;2023-02-01T10:55:41;99486.02;;;5.04;75.26
77153;BME280;66124;51.146;17.072;2023-02-01T10:58:19;99477.81;;;5.05;75.02
77153;BME280;66124;51.146;17.072;2023-02-01T11:00:52;99475.14;;;5.06;75.24
77153;BME280;66124;51.146;17.072;2023-02-01T11:03:33;99477.89;;;5.08;74.95
77153;BME280;66124;51.146;17.072;2023-02-01T11:06:11;99472.27;;;5.09;74.91
77153;BME280;66124;51.146;17.072;2023-02-01T11:08:47;99478.37;;;5.05;75.03
77153;BME280;66124;51.146;17.072;2023-02-01T11:11:18;99467.62;;;5.00;75.22
77153;BME280;66124;51.146;17.072;2023-02-01T11:13:53;99459.55;;;4.93;75.38
77153;BME280;66124;51.146;17.072;2023-02-01T11:16:30;99450.69;;;4.87;76.09
77153;BME280;66124;51.146;17.072;2023-02-01T11:19:02;99454.88;;;4.87;76.06
77153;BME280;66124;51.146;17.072;2023-02-01T11:21:32;99452.04;;;4.84;76.32
77153;BME280;66124;51.146;17.072;2023-02-01T11:24:04;99450.27;;;4.81;76.34
77153;BME280;66124;51.146;17.072;2023-02-01T11:26:34;99454.05;;;4.78;76.74
77153;BME280;66124;51.146;17.072;2023-02-01T11:29:12;99446.97;;;4.75;77.12
77153;BME280;66124;51.146;17.072;2023-02-01T11:31:43;99442.09;;;4.71;77.31
77153;BME280;66124;51.146;17.072;2023-02-01T11:34:16;99439.26;;;4.69;77.66
77153;BME280;66124;51.146;17.072;2023-02-01T11:36:47;99437.58;;;4.66;77.70
77153;BME280;66124;51.146;17.072;2023-02-01T11:39:25;99430.30;;;4.63;77.84
77153;BME280;66124;51.146;17.072;2023-02-01T11:42:04;99427.16;;;4.63;78.00
77153;BME280;66124;51.146;17.072;2023-02-01T11:44:36;99422.95;;;4.63;77.72
77153;BME280;66124;51.146;17.072;2023-02-01T11:47:22;99419.34;;;4.64;77.98
77153;BME280;66124;51.146;17.072;2023-02-01T11:49:51;99414.30;;;4.67;78.25
77153;BME280;66124;51.146;17.072;2023-02-01T11:57:22;99406.93;;;4.71;78.04
77153;BME280;66124;51.146;17.072;2023-02-01T12:00:09;99406.50;;;4.65;78.41
77153;BME280;66124;51.146;17.072;2023-02-01T12:02:57;99402.73;;;4.60;78.66
77153;BME280;66124;51.146;17.072;2023-02-01T12:05:50;99401.56;;;4.55;78.80
77153;BME280;66124;51.146;17.072;2023-02-01T12:08:54;99404.59;;;4.49;79.10
77153;BME280;66124;51.146;17.072;2023-02-01T12:11:38;99400.69;;;4.42;79.60
77153;BME280;66124;51.146;17.072;2023-02-01T12:14:30;99402.80;;;4.37;79.72
77153;BME280;66124;51.146;17.072;2023-02-01T12:17:27;99405.95;;;4.31;79.93
77153;BME280;66124;51.146;17.072;2023-02-01T12:20:16;99404.02;;;4.27;79.84
77153;BME280;66124;51.146;17.072;2023-02-01T12:23:06;99398.46;;;4.27;79.98
77153;BME280;66124;51.146;17.072;2023-02-01T12:25:46;99397.04;;;4.29;80.14
77153;BME280;66124;51.146;17.072;2023-02-01T12:28:36;99393.98;;;4.31;80.04
77153;BME280;66124;51.146;17.072;2023-02-01T12:31:30;99389.49;;;4.36;80.00
77153;BME280;66124;51.146;17.072;2023-02-01T12:34:15;99397.16;;;4.40;80.12
77153;BME280;66124;51.146;17.072;2023-02-01T12:36:57;99391.40;;;4.46;80.00
77153;BME280;66124;51.146;17.072;2023-02-01T12:39:33;99400.90;;;4.51;80.01
77153;BME280;66124;51.146;17.072;2023-02-01T12:42:13;99398.01;;;4.52;80.17
77153;BME280;66124;51.146;17.072;2023-02-01T12:44:49;99401.88;;;4.52;80.29
77153;BME280;66124;51.146;17.072;2023-02-01T12:47:24;99404.33;;;4.50;80.36
77153;BME280;66124;51.146;17.072;2023-02-01T12:50:01;99400.35;;;4.47;80.50
77153;BME280;66124;51.146;17.072;2023-02-01T12:52:37;99410.77;;;4.45;80.47
77153;BME280;66124;51.146;17.072;2023-02-01T12:55:17;99403.25;;;4.45;80.49
77153;BME280;66124;51.146;17.072;2023-02-01T12:57:51;99406.95;;;4.45;80.49
77153;BME280;66124;51.146;17.072;2023-02-01T13:00:26;99421.48;;;4.44;80.40
77153;BME280;66124;51.146;17.072;2023-02-01T13:03:03;99426.63;;;4.41;80.55
77153;BME280;66124;51.146;17.072;2023-02-01T13:05:43;99415.27;;;4.37;80.80
77153;BME280;66124;51.146;17.072;2023-02-01T13:08:14;99422.79;;;4.33;80.90
77153;BME280;66124;51.146;17.072;2023-02-01T13:13:40;99444.91;;;4.32;81.20
77153;BME280;66124;51.146;17.072;2023-02-01T13:16:16;99441.81;;;4.28;81.32
77153;BME280;66124;51.146;17.072;2023-02-01T13:18:49;99440.67;;;4.27;81.59
77153;BME280;66124;51.146;17.072;2023-02-01T13:21:23;99448.05;;;4.28;81.85
77153;BME280;66124;51.146;17.072;2023-02-01T13:23:54;99444.09;;;4.28;81.63
77153;BME280;66124;51.146;17.072;2023-02-01T13:26:23;99450.49;;;4.28;81.71
77153;BME280;66124;51.146;17.072;2023-02-01T13:28:56;99448.23;;;4.30;81.27
77153;BME280;66124;51.146;17.072;2023-02-01T13:31:51;99455.05;;;4.33;81.68
77153;BME280;66124;51.146;17.072;2023-02-01T13:34:39;99453.04;;;4.37;81.30
77153;BME280;66124;51.146;17.072;2023-02-01T13:37:23;99455.83;;;4.40;80.96
77153;BME280;66124;51.146;17.072;2023-02-01T13:40:10;99462.55;;;4.44;80.91
77153;BME280;66124;51.146;17.072;2023-02-01T13:42:47;99454.09;;;4.45;81.07
77153;BME280;66124;51.146;17.072;2023-02-01T13:45:21;99460.30;;;4.44;80.98
77153;BME280;66124;51.146;17.072;2023-02-01T13:47:54;99460.86;;;4.42;81.27
77153;BME280;66124;51.146;17.072;2023-02-01T13:50:23;99453.20;;;4.39;81.19
77153;BME280;66124;51.146;17.072;2023-02-01T13:52:56;99453.60;;;4.37;81.09
77153;BME280;66124;51.146;17.072;2023-02-01T13:55:30;99452.39;;;4.36;81.09
77153;BME280;66124;51.146;17.072;2023-02-01T13:58:05;99466.19;;;4.36;81.02
77153;BME280;66124;51.146;17.072;2023-02-01T14:00:37;99462.19;;;4.41;80.94
77153;BME280;66124;51.146;17.072;2023-02-01T14:03:16;99456.92;;;4.46;81.05
77153;BME280;66124;51.146;17.072;2023-02-01T14:06:18;99457.06;;;4.61;80.89
77153;BME280;66124;51.146;17.072;2023-02-01T14:09:19;99464.05;;;4.81;80.37
77153;BME280;66124;51.146;17.072;2023-02-01T14:11:57;99466.73;;;4.88;79.83
77153;BME280;66124;51.146;17.072;2023-02-01T14:14:41;99460.02;;;4.87;79.80
77153;BME280;66124;51.146;17.072;2023-02-01T14:17:36;99458.73;;;4.85;79.83
77153;BME280;66124;51.146;17.072;2023-02-01T14:23:18;99464.48;;;4.78;80.14
77153;BME280;66124;51.146;17.072;2023-02-01T14:25:46;99461.15;;;4.74;80.82
77153;BME280;66124;51.146;17.072;2023-02-01T14:33:43;99468.40;;;4.55;81.57
77153;BME280;66124;51.146;17.072;2023-02-01T14:36:12;99469.70;;;4.42;82.02
77153;BME280;66124;51.146;17.072;2023-02-01T14:38:48;99470.69;;;4.38;82.01
77153;BME280;66124;51.146;17.072;2023-02-01T14:41:31;99465.27;;;4.35;82.16